Terminal Aerodrome Forecast
Issued by NWS

Home | Current Version | Previous Version | Text Only | Print | Product List | Glossary On
Versions: 1 2 3 4 5 6 7 8 9 10 11 12 13 14 15 16
000
FTUS42 KMLB 271125
TAFTIX
TAF
KTIX 271125Z 2712/2812 07008KT P6SM SCT035
     FM271500 12013KT P6SM SCT035
      TEMPO 2716/2720 BKN035
     FM280000 12006KT P6SM SCT035
     FM280800 12004KT P6SM SCT008
      TEMPO 2809/2812 5SM BR BKN008=

USA.gov is the U.S. government's official web portal to all federal, state and local government web resources and services.